createdAt,value
2022-12-28T00:00:00.672Z,101430
2022-12-28T00:01:04.525Z,101430
2022-12-28T00:02:00.735Z,101420
2022-12-28T00:03:00.739Z,101420
2022-12-28T00:04:02.020Z,101420
2022-12-28T00:05:00.661Z,101420
2022-12-28T00:06:01.266Z,101430
2022-12-28T00:07:00.655Z,101430
2022-12-28T00:08:00.660Z,101430
2022-12-28T00:09:00.942Z,101430
2022-12-28T00:10:00.719Z,101420
2022-12-28T00:11:08.239Z,101420
2022-12-28T00:12:00.686Z,101410
2022-12-28T00:13:00.689Z,101410
2022-12-28T00:14:00.885Z,101410
2022-12-28T00:15:00.721Z,101410
2022-12-28T00:16:08.817Z,101410
2022-12-28T00:17:00.707Z,101410
2022-12-28T00:18:00.684Z,101400
2022-12-28T00:19:01.835Z,101400
2022-12-28T00:20:00.681Z,101390
2022-12-28T00:21:01.329Z,101390
2022-12-28T00:22:00.672Z,101390
2022-12-28T00:23:03.623Z,101390
2022-12-28T00:24:01.096Z,101380
2022-12-28T00:25:00.687Z,101380
2022-12-28T00:26:04.635Z,101380
2022-12-28T00:27:00.704Z,101380
2022-12-28T00:28:00.981Z,101370
2022-12-28T00:29:04.228Z,101370
2022-12-28T00:30:00.860Z,101360
2022-12-28T00:31:00.869Z,101360
2022-12-28T00:32:00.733Z,101360
2022-12-28T00:33:00.680Z,101360
2022-12-28T00:34:01.370Z,101350
2022-12-28T00:35:00.661Z,101350
2022-12-28T00:36:01.174Z,101350
2022-12-28T00:37:08.528Z,101350
2022-12-28T00:38:00.644Z,101340
2022-12-28T00:39:00.778Z,101340
2022-12-28T00:40:00.680Z,101340
2022-12-28T00:41:00.654Z,101340
2022-12-28T00:42:00.678Z,101340
2022-12-28T00:43:00.666Z,101340
2022-12-28T00:44:00.684Z,101340
2022-12-28T00:45:00.661Z,101340
2022-12-28T00:46:01.287Z,101320
2022-12-28T00:47:00.658Z,101320
2022-12-28T00:48:00.677Z,101320
2022-12-28T00:49:00.688Z,101320
2022-12-28T00:50:00.701Z,101320
2022-12-28T00:51:01.607Z,101320
2022-12-28T00:52:00.662Z,101320
2022-12-28T00:53:00.657Z,101320
2022-12-28T00:54:00.656Z,101320
2022-12-28T00:55:00.724Z,101320
2022-12-28T00:56:10.616Z,101330
2022-12-28T00:57:00.649Z,101330
2022-12-28T00:58:01.314Z,101330
2022-12-28T00:59:00.661Z,101330
2022-12-28T01:00:00.715Z,101320
2022-12-28T01:01:01.136Z,101320
2022-12-28T01:02:00.915Z,101320
2022-12-28T01:03:00.782Z,101320
2022-12-28T01:04:00.848Z,101310
2022-12-28T01:05:00.669Z,101310
2022-12-28T01:06:04.028Z,101320
2022-12-28T01:07:00.809Z,101320
2022-12-28T01:08:00.689Z,101310
2022-12-28T01:09:00.672Z,101310
2022-12-28T01:10:00.705Z,101300
2022-12-28T01:11:05.457Z,101300
2022-12-28T01:12:00.717Z,101300
2022-12-28T01:13:00.670Z,101300
2022-12-28T01:14:01.043Z,101290
2022-12-28T01:15:01.046Z,101290
2022-12-28T01:16:08.312Z,101290
2022-12-28T01:17:00.692Z,101290
2022-12-28T01:18:00.684Z,101290
2022-12-28T01:19:02.317Z,101290
2022-12-28T01:20:00.909Z,101290
2022-12-28T01:21:06.457Z,101290
2022-12-28T01:22:00.670Z,101290
2022-12-28T01:23:00.675Z,101290
2022-12-28T01:24:01.889Z,101280
2022-12-28T01:25:00.701Z,101280
2022-12-28T01:26:01.602Z,101280
2022-12-28T01:27:00.790Z,101280
2022-12-28T01:28:00.720Z,101280
2022-12-28T01:29:01.316Z,101280
2022-12-28T01:30:00.652Z,101280
2022-12-28T01:31:02.826Z,101280
2022-12-28T01:32:00.757Z,101270
2022-12-28T01:33:00.651Z,101270
2022-12-28T01:34:01.291Z,101270
2022-12-28T01:35:00.651Z,101270
2022-12-28T01:36:08.183Z,101260
2022-12-28T01:37:00.938Z,101260
2022-12-28T01:38:00.647Z,101260
2022-12-28T01:39:03.488Z,101260
2022-12-28T01:40:00.670Z,101250
2022-12-28T01:41:00.939Z,101250
2022-12-28T01:42:00.684Z,101250
2022-12-28T01:43:00.665Z,101250
2022-12-28T01:44:00.653Z,101240
2022-12-28T01:45:10.611Z,101240
2022-12-28T01:46:00.688Z,101240
2022-12-28T01:47:02.990Z,101240
2022-12-28T01:48:00.652Z,101240
2022-12-28T01:49:04.610Z,101240
2022-12-28T01:50:04.409Z,101240
2022-12-28T01:51:00.765Z,101240
2022-12-28T01:52:02.401Z,101230
2022-12-28T01:53:03.094Z,101230
2022-12-28T01:54:01.738Z,101230
2022-12-28T01:55:04.196Z,101230
2022-12-28T01:56:00.681Z,101220
2022-12-28T01:57:01.391Z,101220
2022-12-28T01:58:04.361Z,101220
2022-12-28T01:59:00.675Z,101220
2022-12-28T02:00:04.680Z,101200
2022-12-28T02:01:01.069Z,101200
2022-12-28T02:02:01.122Z,101210
2022-12-28T02:03:04.264Z,101210
2022-12-28T02:04:00.694Z,101200
2022-12-28T02:05:01.174Z,101200
2022-12-28T02:06:02.357Z,101200
2022-12-28T02:07:00.704Z,101200
2022-12-28T02:08:06.181Z,101190
2022-12-28T02:09:05.067Z,101190
2022-12-28T02:10:41.064Z,101190
2022-12-28T02:11:01.168Z,101190
2022-12-28T02:12:00.703Z,101180
2022-12-28T02:13:01.349Z,101180
2022-12-28T02:14:01.811Z,101180
2022-12-28T02:15:00.919Z,101180
2022-12-28T02:16:00.743Z,101180
2022-12-28T02:17:00.759Z,101180
2022-12-28T02:18:01.091Z,101170
2022-12-28T02:19:00.723Z,101170
2022-12-28T02:20:01.106Z,101160
2022-12-28T02:21:03.918Z,101160
2022-12-28T02:22:10.633Z,101160
2022-12-28T02:23:10.619Z,101160
2022-12-28T02:24:10.593Z,101160
2022-12-28T02:25:12.301Z,101160
2022-12-28T02:26:10.592Z,101160
2022-12-28T02:27:05.066Z,101160
2022-12-28T02:28:08.162Z,101160
2022-12-28T02:29:07.988Z,101160
2022-12-28T02:30:02.365Z,101140
2022-12-28T02:31:06.326Z,101140
2022-12-28T02:32:10.632Z,101140
2022-12-28T02:33:06.808Z,101140
2022-12-28T02:34:08.843Z,101130
2022-12-28T02:35:05.764Z,101130
2022-12-28T02:36:04.750Z,101140
2022-12-28T02:37:06.016Z,101140
2022-12-28T02:38:09.293Z,101120
2022-12-28T02:39:04.876Z,101120
2022-12-28T02:40:03.671Z,101120
2022-12-28T02:41:04.984Z,101120
2022-12-28T02:42:02.369Z,101120
2022-12-28T02:43:01.873Z,101120
2022-12-28T02:44:00.820Z,101110
2022-12-28T02:45:01.005Z,101110
2022-12-28T02:46:10.725Z,101100
2022-12-28T02:47:00.680Z,101100
2022-12-28T02:48:00.706Z,101110
2022-12-28T02:49:10.587Z,101110
2022-12-28T02:50:02.766Z,101110
2022-12-28T02:51:10.418Z,101110
2022-12-28T02:52:08.128Z,101100
2022-12-28T02:53:10.609Z,101100
2022-12-28T02:54:10.610Z,101110
2022-12-28T02:55:03.925Z,101110
2022-12-28T02:56:09.181Z,101130
2022-12-28T02:57:07.302Z,101130
2022-12-28T02:58:10.605Z,101110
2022-12-28T02:59:10.608Z,101110
2022-12-28T03:00:00.647Z,101100
2022-12-28T03:01:00.759Z,101100
2022-12-28T03:02:08.479Z,101110
2022-12-28T03:03:10.611Z,101110
2022-12-28T03:04:10.621Z,101100
2022-12-28T03:05:03.920Z,101100
2022-12-28T03:06:14.625Z,101100
2022-12-28T03:07:07.628Z,101100
2022-12-28T03:08:06.749Z,101110
2022-12-28T03:09:08.508Z,101110
2022-12-28T03:10:09.190Z,101100
2022-12-28T03:11:07.226Z,101100
2022-12-28T03:12:06.748Z,101110
2022-12-28T03:13:04.403Z,101110
2022-12-28T03:14:02.714Z,101090
2022-12-28T03:15:10.610Z,101090
2022-12-28T03:16:04.182Z,101090
2022-12-28T03:17:01.835Z,101090
2022-12-28T03:18:05.533Z,101090
2022-12-28T03:19:04.291Z,101090
2022-12-28T03:20:03.895Z,101100
2022-12-28T03:21:03.528Z,101100
2022-12-28T03:22:00.748Z,101090
2022-12-28T03:23:01.696Z,101090
2022-12-28T03:24:01.439Z,101090
2022-12-28T03:25:02.961Z,101090
2022-12-28T03:26:01.704Z,101080
2022-12-28T03:27:03.852Z,101080
2022-12-28T03:28:01.811Z,101080
2022-12-28T03:29:01.804Z,101080
2022-12-28T03:30:04.045Z,101070
2022-12-28T03:31:03.977Z,101070
2022-12-28T03:32:01.068Z,101070
2022-12-28T03:33:01.053Z,101070
2022-12-28T03:34:02.016Z,101060
2022-12-28T03:35:00.780Z,101060
2022-12-28T03:36:10.151Z,101080
2022-12-28T03:37:07.241Z,101080
2022-12-28T03:38:01.882Z,101080
2022-12-28T03:39:00.694Z,101080
2022-12-28T03:40:08.531Z,101070
2022-12-28T03:41:05.958Z,101070
2022-12-28T03:42:10.606Z,101070
2022-12-28T03:43:03.499Z,101070
2022-12-28T03:44:06.755Z,101060
2022-12-28T03:45:10.595Z,101060
2022-12-28T03:46:05.347Z,101070
2022-12-28T03:47:06.693Z,101070
2022-12-28T03:48:01.935Z,101070
2022-12-28T03:49:01.380Z,101070
2022-12-28T03:50:00.721Z,101060
2022-12-28T03:51:00.671Z,101060
2022-12-28T03:52:01.420Z,101070
2022-12-28T03:53:00.726Z,101070
2022-12-28T03:54:00.686Z,101060
2022-12-28T03:55:00.690Z,101060
2022-12-28T03:56:09.925Z,101060
2022-12-28T03:57:00.641Z,101060
2022-12-28T03:58:00.652Z,101060
2022-12-28T03:59:00.654Z,101060
2022-12-28T04:00:00.683Z,101060
2022-12-28T04:01:00.772Z,101060
2022-12-28T04:02:00.808Z,101050
2022-12-28T04:03:00.781Z,101050
2022-12-28T04:04:00.660Z,101050
2022-12-28T04:05:00.674Z,101050
2022-12-28T04:06:00.746Z,101050
2022-12-28T04:07:00.650Z,101050
2022-12-28T04:08:00.673Z,101050
2022-12-28T04:09:00.739Z,101050
2022-12-28T04:10:00.643Z,101040
2022-12-28T04:11:00.870Z,101040
2022-12-28T04:12:00.651Z,101030
2022-12-28T04:13:00.668Z,101030
2022-12-28T04:14:08.511Z,101030
2022-12-28T04:15:00.709Z,101030
2022-12-28T04:16:01.997Z,101030
2022-12-28T04:17:00.658Z,101030
2022-12-28T04:18:00.909Z,101030
2022-12-28T04:19:00.678Z,101030
2022-12-28T04:20:00.831Z,101030
2022-12-28T04:21:01.027Z,101030
2022-12-28T04:22:00.651Z,101030
2022-12-28T04:23:00.669Z,101030
2022-12-28T04:24:00.686Z,101030
2022-12-28T04:25:00.672Z,101030
2022-12-28T04:26:05.339Z,101030
2022-12-28T04:27:00.699Z,101030
2022-12-28T04:28:00.679Z,101030
2022-12-28T04:29:00.679Z,101030
2022-12-28T04:30:00.682Z,101030
2022-12-28T04:31:01.058Z,101030
2022-12-28T04:32:00.676Z,101030
2022-12-28T04:33:00.680Z,101030
2022-12-28T04:34:00.674Z,101030
2022-12-28T04:35:00.860Z,101030
2022-12-28T04:36:10.447Z,101030
2022-12-28T04:37:00.656Z,101030
2022-12-28T04:38:00.691Z,101030
2022-12-28T04:39:00.690Z,101030
2022-12-28T04:40:00.675Z,101030
2022-12-28T04:41:00.789Z,101030
2022-12-28T04:42:00.686Z,101030
2022-12-28T04:43:00.694Z,101030
2022-12-28T04:44:00.936Z,101020
2022-12-28T04:45:00.672Z,101020
2022-12-28T04:46:02.451Z,101020
2022-12-28T04:47:00.702Z,101020
2022-12-28T04:48:00.665Z,101020
2022-12-28T04:49:00.716Z,101020
2022-12-28T04:50:00.696Z,101020
2022-12-28T04:51:08.981Z,101020
2022-12-28T04:52:00.660Z,101010
2022-12-28T04:53:00.678Z,101010
2022-12-28T04:54:00.739Z,101010
2022-12-28T04:55:00.662Z,101010
2022-12-28T04:56:02.679Z,101010
2022-12-28T04:57:00.656Z,101010
2022-12-28T04:58:00.771Z,101020
2022-12-28T04:59:00.705Z,101020
2022-12-28T05:00:00.709Z,101020
2022-12-28T05:01:03.764Z,101020
2022-12-28T05:02:00.937Z,101010
2022-12-28T05:03:00.930Z,101010
2022-12-28T05:04:00.706Z,101010
2022-12-28T05:05:00.660Z,101010
2022-12-28T05:06:01.551Z,101010
2022-12-28T05:07:00.655Z,101010
2022-12-28T05:08:01.061Z,101010
2022-12-28T05:09:00.704Z,101010
2022-12-28T05:10:00.667Z,101010
2022-12-28T05:11:01.101Z,101010
2022-12-28T05:12:00.658Z,101010
2022-12-28T05:13:00.656Z,101010
2022-12-28T05:14:00.657Z,101010
2022-12-28T05:15:00.654Z,101010
2022-12-28T05:16:01.172Z,101000
2022-12-28T05:17:00.660Z,101000
2022-12-28T05:18:00.698Z,101010
2022-12-28T05:19:00.688Z,101010
2022-12-28T05:20:01.089Z,101000
2022-12-28T05:21:02.329Z,101000
2022-12-28T05:22:00.688Z,101010
2022-12-28T05:23:00.646Z,101010
2022-12-28T05:24:00.686Z,101000
2022-12-28T05:25:00.653Z,101000
2022-12-28T05:26:00.940Z,101000
2022-12-28T05:27:00.681Z,101000
2022-12-28T05:28:00.691Z,101000
2022-12-28T05:29:00.670Z,101000
2022-12-28T05:30:00.749Z,101000
2022-12-28T05:31:01.856Z,101000
2022-12-28T05:32:00.645Z,101010
2022-12-28T05:33:00.677Z,101010
2022-12-28T05:34:00.747Z,101010
2022-12-28T05:35:00.701Z,101010
2022-12-28T05:36:02.716Z,101010
2022-12-28T05:37:00.657Z,101010
2022-12-28T05:38:00.662Z,101000
2022-12-28T05:39:00.753Z,101000
2022-12-28T05:40:00.708Z,101010
2022-12-28T05:41:10.053Z,101010
2022-12-28T05:42:00.676Z,101000
2022-12-28T05:43:00.702Z,101000
2022-12-28T05:44:00.700Z,101010
2022-12-28T05:45:00.781Z,101010
2022-12-28T05:46:01.577Z,101000
2022-12-28T05:47:00.717Z,101000
2022-12-28T05:48:00.657Z,101010
2022-12-28T05:49:01.022Z,101010
2022-12-28T05:50:00.664Z,101010
2022-12-28T05:51:01.586Z,101010
2022-12-28T05:52:00.759Z,101000
2022-12-28T05:53:00.692Z,101000
2022-12-28T05:54:01.750Z,101000
2022-12-28T05:55:00.795Z,101000
2022-12-28T05:56:01.898Z,101000
2022-12-28T05:57:00.649Z,101000
2022-12-28T05:58:00.665Z,101000
2022-12-28T05:59:02.983Z,101000
2022-12-28T06:00:00.725Z,100990
2022-12-28T06:01:04.082Z,100990
2022-12-28T06:02:00.842Z,100990
2022-12-28T06:03:00.776Z,100990
2022-12-28T06:04:03.563Z,100980
2022-12-28T06:05:00.680Z,100980
2022-12-28T06:06:03.063Z,100980
2022-12-28T06:07:00.674Z,100980
2022-12-28T06:08:01.156Z,100980
2022-12-28T06:09:00.862Z,100980
2022-12-28T06:10:00.703Z,100980
2022-12-28T06:11:01.543Z,100980
2022-12-28T06:12:00.706Z,100970
2022-12-28T06:13:00.673Z,100970
2022-12-28T06:14:00.696Z,100980
2022-12-28T06:15:00.667Z,100980
2022-12-28T06:16:08.987Z,100970
2022-12-28T06:17:00.715Z,100970
2022-12-28T06:18:00.653Z,100960
2022-12-28T06:19:05.309Z,100960
2022-12-28T06:20:00.651Z,100950
2022-12-28T06:21:02.179Z,100950
2022-12-28T06:22:00.661Z,100960
2022-12-28T06:23:00.653Z,100960
2022-12-28T06:24:01.321Z,100960
2022-12-28T06:25:00.909Z,100960
2022-12-28T06:26:01.567Z,100960
2022-12-28T06:27:00.657Z,100960
2022-12-28T06:28:00.649Z,100960
2022-12-28T06:29:00.687Z,100960
2022-12-28T06:30:00.663Z,100960
2022-12-28T06:31:04.815Z,100960
2022-12-28T06:32:00.798Z,100960
2022-12-28T06:33:00.656Z,100960
2022-12-28T06:34:01.521Z,100960
2022-12-28T06:35:00.656Z,100960
2022-12-28T06:36:01.011Z,100960
2022-12-28T06:37:00.710Z,100960
2022-12-28T06:38:00.692Z,100960
2022-12-28T06:39:01.722Z,100960
2022-12-28T06:40:00.716Z,100950
2022-12-28T06:41:13.286Z,100950
2022-12-28T06:42:00.648Z,100950
2022-12-28T06:43:00.651Z,100950
2022-12-28T06:44:00.772Z,100950
2022-12-28T06:45:00.694Z,100950
2022-12-28T06:46:00.729Z,100950
2022-12-28T06:47:00.655Z,100950
2022-12-28T06:48:00.649Z,100950
2022-12-28T06:49:00.772Z,100950
2022-12-28T06:50:00.847Z,100940
2022-12-28T06:51:10.585Z,100940
2022-12-28T06:52:00.681Z,100940
2022-12-28T06:53:00.679Z,100940
2022-12-28T06:54:01.168Z,100940
2022-12-28T06:55:00.693Z,100940
2022-12-28T06:56:02.113Z,100950
2022-12-28T06:57:00.678Z,100950
2022-12-28T06:58:00.649Z,100950
2022-12-28T06:59:03.677Z,100950
2022-12-28T07:00:00.740Z,100950
2022-12-28T07:01:10.864Z,100950
2022-12-28T07:02:00.922Z,100950
2022-12-28T07:03:00.697Z,100950
2022-12-28T07:04:01.518Z,100950
2022-12-28T07:05:00.688Z,100950
2022-12-28T07:06:01.236Z,100950
2022-12-28T07:07:00.674Z,100950
2022-12-28T07:08:00.647Z,100950
2022-12-28T07:09:03.045Z,100950
2022-12-28T07:10:00.706Z,100940
2022-12-28T07:11:01.840Z,100940
2022-12-28T07:12:00.673Z,100950
2022-12-28T07:13:00.677Z,100950
2022-12-28T07:14:00.930Z,100950
2022-12-28T07:15:00.674Z,100950
2022-12-28T07:16:02.885Z,100950
2022-12-28T07:17:00.677Z,100950
2022-12-28T07:18:00.681Z,100950
2022-12-28T07:19:01.127Z,100950
2022-12-28T07:20:00.687Z,100940
2022-12-28T07:21:02.148Z,100940
2022-12-28T07:22:00.649Z,100940
2022-12-28T07:23:00.695Z,100940
2022-12-28T07:24:01.346Z,100940
2022-12-28T07:25:00.652Z,100940
2022-12-28T07:26:05.210Z,100940
2022-12-28T07:27:00.687Z,100940
2022-12-28T07:28:00.713Z,100940
2022-12-28T07:29:01.800Z,100940
2022-12-28T07:30:00.924Z,100930
2022-12-28T07:31:04.147Z,100930
2022-12-28T07:32:00.676Z,100940
2022-12-28T07:33:00.669Z,100940
2022-12-28T07:34:00.963Z,100930
2022-12-28T07:35:00.704Z,100930
2022-12-28T07:36:01.221Z,100930
2022-12-28T07:37:00.656Z,100930
2022-12-28T07:38:00.676Z,100920
2022-12-28T07:39:00.674Z,100920
2022-12-28T07:40:00.704Z,100920
2022-12-28T07:41:03.042Z,100920
2022-12-28T07:42:00.709Z,100930
2022-12-28T07:43:00.663Z,100930
2022-12-28T07:44:01.112Z,100920
2022-12-28T07:45:00.771Z,100920
2022-12-28T07:46:02.908Z,100930
2022-12-28T07:47:00.720Z,100930
2022-12-28T07:48:00.672Z,100940
2022-12-28T07:49:00.719Z,100940
2022-12-28T07:50:01.162Z,100940
2022-12-28T07:51:06.057Z,100940
2022-12-28T07:52:00.670Z,100950
2022-12-28T07:53:00.731Z,100950
2022-12-28T07:54:01.075Z,100950
2022-12-28T07:55:00.718Z,100950
2022-12-28T07:56:00.694Z,100940
2022-12-28T07:57:00.666Z,100940
2022-12-28T07:58:00.668Z,100950
2022-12-28T07:59:02.181Z,100950
2022-12-28T08:00:01.089Z,100950
2022-12-28T08:01:02.722Z,100950
2022-12-28T08:02:00.829Z,100950
2022-12-28T08:03:00.648Z,100950
2022-12-28T08:04:02.402Z,100950
2022-12-28T08:05:00.682Z,100950
2022-12-28T08:06:03.054Z,100950
2022-12-28T08:07:00.684Z,100950
2022-12-28T08:08:03.755Z,100940
2022-12-28T08:09:00.964Z,100940
2022-12-28T08:10:00.702Z,100940
2022-12-28T08:11:01.608Z,100940
2022-12-28T08:12:00.678Z,100940
2022-12-28T08:13:00.761Z,100940
2022-12-28T08:14:01.048Z,100940
2022-12-28T08:15:00.661Z,100940
2022-12-28T08:16:00.978Z,100940
2022-12-28T08:17:00.676Z,100940
2022-12-28T08:18:00.674Z,100930
2022-12-28T08:19:01.011Z,100930
2022-12-28T08:20:00.704Z,100940
2022-12-28T08:21:01.699Z,100940
2022-12-28T08:22:00.658Z,100940
2022-12-28T08:23:00.683Z,100940
2022-12-28T08:24:01.357Z,100930
2022-12-28T08:25:00.676Z,100930
2022-12-28T08:26:09.123Z,100940
2022-12-28T08:27:00.659Z,100940
2022-12-28T08:28:00.674Z,100930
2022-12-28T08:29:01.689Z,100930
2022-12-28T08:30:00.648Z,100930
2022-12-28T08:31:04.790Z,100930
2022-12-28T08:32:00.679Z,100930
2022-12-28T08:33:00.668Z,100930
2022-12-28T08:34:01.502Z,100930
2022-12-28T08:35:00.658Z,100930
2022-12-28T08:36:00.895Z,100940
2022-12-28T08:37:00.682Z,100940
2022-12-28T08:38:00.675Z,100930
2022-12-28T08:39:00.812Z,100930
2022-12-28T08:40:00.676Z,100930
2022-12-28T08:41:01.796Z,100930
2022-12-28T08:42:00.669Z,100940
2022-12-28T08:43:00.876Z,100940
2022-12-28T08:44:00.818Z,100940
2022-12-28T08:45:00.666Z,100940
2022-12-28T08:46:02.034Z,100940
2022-12-28T08:47:00.868Z,100940
2022-12-28T08:48:00.651Z,100930
2022-12-28T08:49:01.047Z,100930
2022-12-28T08:50:00.690Z,100930
2022-12-28T08:51:02.317Z,100930
2022-12-28T08:52:00.681Z,100930
2022-12-28T08:53:00.684Z,100930
2022-12-28T08:54:01.236Z,100930
2022-12-28T08:55:00.678Z,100930
2022-12-28T08:56:06.440Z,100940
2022-12-28T08:57:00.673Z,100940
2022-12-28T08:58:00.649Z,100930
2022-12-28T08:59:01.065Z,100930
2022-12-28T09:00:00.768Z,100930
2022-12-28T09:01:10.661Z,100930
2022-12-28T09:02:00.745Z,100920
2022-12-28T09:03:00.778Z,100920
2022-12-28T09:04:00.671Z,100920
2022-12-28T09:05:00.676Z,100920
2022-12-28T09:06:01.484Z,100930
2022-12-28T09:07:00.691Z,100930
2022-12-28T09:08:00.718Z,100920
2022-12-28T09:09:06.689Z,100920
2022-12-28T09:10:00.747Z,100930
2022-12-28T09:11:01.960Z,100930
2022-12-28T09:12:00.671Z,100930
2022-12-28T09:13:00.709Z,100930
2022-12-28T09:14:01.367Z,100930
2022-12-28T09:15:00.650Z,100930
2022-12-28T09:16:02.089Z,100940
2022-12-28T09:17:00.649Z,100940
2022-12-28T09:18:00.677Z,100940
2022-12-28T09:19:01.827Z,100940
2022-12-28T09:20:00.768Z,100940
2022-12-28T09:21:04.746Z,100940
2022-12-28T09:22:00.678Z,100940
2022-12-28T09:23:00.675Z,100940
2022-12-28T09:24:00.676Z,100940
2022-12-28T09:25:00.704Z,100940
2022-12-28T09:26:05.019Z,100940
2022-12-28T09:27:00.650Z,100940
2022-12-28T09:28:00.638Z,100940
2022-12-28T09:29:01.437Z,100940
2022-12-28T09:30:00.969Z,100940
2022-12-28T09:31:01.496Z,100940
2022-12-28T09:32:00.646Z,100940
2022-12-28T09:33:00.684Z,100940
2022-12-28T09:35:00.656Z,100940
2022-12-28T09:36:00.678Z,100940
2022-12-28T09:37:01.017Z,100940
2022-12-28T09:38:00.678Z,100940
2022-12-28T09:39:03.437Z,100940
2022-12-28T09:40:01.717Z,100930
2022-12-28T09:41:00.692Z,100930
2022-12-28T09:42:02.334Z,100930
2022-12-28T09:43:00.647Z,100930
2022-12-28T09:44:10.605Z,100930
2022-12-28T09:45:00.700Z,100930
2022-12-28T09:46:00.803Z,100930
2022-12-28T09:47:10.610Z,100930
2022-12-28T09:48:04.692Z,100920
2022-12-28T09:49:03.149Z,100920
2022-12-28T09:50:00.654Z,100920
2022-12-28T09:51:00.932Z,100920
2022-12-28T09:52:10.610Z,100920
2022-12-28T09:53:10.593Z,100920
2022-12-28T09:54:02.263Z,100920
2022-12-28T09:55:08.895Z,100920
2022-12-28T09:56:10.587Z,100910
2022-12-28T09:57:00.692Z,100910
2022-12-28T09:58:01.237Z,100920
2022-12-28T09:59:02.969Z,100920
2022-12-28T10:00:00.764Z,100920
2022-12-28T10:01:01.697Z,100920
2022-12-28T10:02:03.469Z,100920
2022-12-28T10:03:02.660Z,100920
2022-12-28T10:04:01.281Z,100920
2022-12-28T10:05:00.817Z,100920
2022-12-28T10:06:02.032Z,100920
2022-12-28T10:07:00.765Z,100920
2022-12-28T10:08:00.904Z,100920
2022-12-28T10:09:01.451Z,100920
2022-12-28T10:10:00.705Z,100920
2022-12-28T10:11:01.190Z,100920
2022-12-28T10:12:10.269Z,100920
2022-12-28T10:13:29.592Z,100920
2022-12-28T10:14:02.183Z,100910
2022-12-28T10:15:00.769Z,100910
2022-12-28T10:16:03.144Z,100910
2022-12-28T10:17:01.284Z,100910
2022-12-28T10:18:00.683Z,100910
2022-12-28T10:19:00.806Z,100910
2022-12-28T10:20:00.679Z,100910
2022-12-28T10:21:00.687Z,100910
2022-12-28T10:22:03.681Z,100910
2022-12-28T10:23:01.255Z,100910
2022-12-28T10:24:30.440Z,100910
2022-12-28T10:25:00.652Z,100910
2022-12-28T10:26:00.833Z,100910
2022-12-28T10:27:02.912Z,100910
2022-12-28T10:28:04.894Z,100910
2022-12-28T10:29:00.862Z,100910
2022-12-28T10:30:01.279Z,100900
2022-12-28T10:31:03.005Z,100900
2022-12-28T10:32:02.216Z,100900
2022-12-28T10:33:03.330Z,100900
2022-12-28T10:34:00.785Z,100900
2022-12-28T10:35:01.134Z,100900
2022-12-28T10:36:01.544Z,100900
2022-12-28T10:37:14.621Z,100900
2022-12-28T10:38:02.908Z,100900
2022-12-28T10:39:00.734Z,100900
2022-12-28T10:40:02.892Z,100900
2022-12-28T10:41:03.661Z,100900
2022-12-28T10:42:01.016Z,100890
2022-12-28T10:43:08.486Z,100890
2022-12-28T10:44:38.317Z,100900
2022-12-28T10:45:04.209Z,100900
2022-12-28T10:46:01.819Z,100900
2022-12-28T10:47:02.605Z,100900
2022-12-28T10:48:06.071Z,100900
2022-12-28T10:49:00.925Z,100900
2022-12-28T10:51:10.106Z,100890
2022-12-28T10:52:02.614Z,100890
2022-12-28T10:53:00.677Z,100890
2022-12-28T10:54:00.708Z,100880
2022-12-28T10:55:08.056Z,100880
2022-12-28T10:56:00.654Z,100890
2022-12-28T10:57:00.721Z,100890
2022-12-28T10:58:30.624Z,100890
2022-12-28T10:59:10.625Z,100890
2022-12-28T11:00:10.588Z,100890
2022-12-28T11:01:03.130Z,100890
2022-12-28T11:02:10.876Z,100880
2022-12-28T11:03:10.645Z,100880
2022-12-28T11:04:03.182Z,100880
2022-12-28T11:05:01.921Z,100880
2022-12-28T11:06:10.584Z,100880
2022-12-28T11:07:01.036Z,100880
2022-12-28T11:08:04.920Z,100880
2022-12-28T11:09:10.579Z,100880
2022-12-28T11:10:10.578Z,100870
2022-12-28T11:11:00.901Z,100870
2022-12-28T11:12:10.581Z,100860
2022-12-28T11:13:00.705Z,100860
2022-12-28T11:14:05.761Z,100870
2022-12-28T11:15:00.681Z,100870
2022-12-28T11:16:00.748Z,100870
2022-12-28T11:17:10.596Z,100870
2022-12-28T11:18:06.022Z,100870
2022-12-28T11:19:00.811Z,100870
2022-12-28T11:20:05.519Z,100860
2022-12-28T11:21:00.681Z,100860
2022-12-28T11:22:00.667Z,100850
2022-12-28T11:23:04.469Z,100850
2022-12-28T11:24:00.758Z,100860
2022-12-28T11:25:01.209Z,100860
2022-12-28T11:26:00.737Z,100850
2022-12-28T11:27:01.609Z,100850
2022-12-28T11:28:05.050Z,100850
2022-12-28T11:29:00.998Z,100850
2022-12-28T11:30:01.709Z,100840
2022-12-28T11:31:00.897Z,100840
2022-12-28T11:32:03.280Z,100840
2022-12-28T11:33:01.317Z,100840
2022-12-28T11:34:02.097Z,100850
2022-12-28T11:35:01.559Z,100850
2022-12-28T11:36:02.558Z,100840
2022-12-28T11:37:00.679Z,100840
2022-12-28T11:38:02.313Z,100840
2022-12-28T11:39:10.608Z,100840
2022-12-28T11:40:00.674Z,100840
2022-12-28T11:41:00.724Z,100840
2022-12-28T11:43:00.669Z,100840
2022-12-28T11:44:01.920Z,100830
2022-12-28T11:45:01.649Z,100830
2022-12-28T11:46:01.597Z,100830
2022-12-28T11:47:10.605Z,100830
2022-12-28T11:48:10.625Z,100820
2022-12-28T11:49:01.914Z,100820
2022-12-28T11:50:10.646Z,100820
2022-12-28T11:51:02.750Z,100820
2022-12-28T11:52:10.619Z,100820
2022-12-28T11:53:01.158Z,100820
2022-12-28T11:54:00.639Z,100820
2022-12-28T11:55:10.642Z,100820
2022-12-28T11:56:05.824Z,100820
2022-12-28T11:57:00.685Z,100820
2022-12-28T11:58:10.611Z,100820
2022-12-28T11:59:02.403Z,100820
2022-12-28T12:00:10.588Z,100810
2022-12-28T12:01:00.700Z,100810
2022-12-28T12:02:01.798Z,100810
2022-12-28T12:03:00.755Z,100810
2022-12-28T12:04:00.632Z,100810
2022-12-28T12:05:10.636Z,100810
2022-12-28T12:06:00.650Z,100800
2022-12-28T12:07:00.638Z,100800
2022-12-28T12:08:01.460Z,100810
2022-12-28T12:09:00.709Z,100810
2022-12-28T12:10:10.645Z,100800
2022-12-28T12:11:10.618Z,100800
2022-12-28T12:12:01.346Z,100800
2022-12-28T12:13:02.363Z,100800
2022-12-28T12:14:01.113Z,100790
2022-12-28T12:15:07.967Z,100790
2022-12-28T12:16:02.200Z,100780
2022-12-28T12:17:00.773Z,100780
2022-12-28T12:18:02.224Z,100790
2022-12-28T12:19:02.186Z,100790
2022-12-28T12:20:04.098Z,100790
2022-12-28T12:21:03.620Z,100790
2022-12-28T12:22:00.638Z,100790
2022-12-28T12:23:05.090Z,100790
2022-12-28T12:24:09.123Z,100780
2022-12-28T12:25:03.476Z,100780
2022-12-28T12:26:10.582Z,100770
2022-12-28T12:27:08.668Z,100770
2022-12-28T12:28:05.666Z,100760
2022-12-28T12:29:04.807Z,100760
2022-12-28T12:30:04.403Z,100770
2022-12-28T12:31:03.401Z,100770